Aérodrome :
LOGIN :

S'inscrire | Disclaimer

   EN    FR    IT 

 










Légende :    VFR   VFR Marginal   IFR   IFR Intensif   IFR Très Intensif
Visi : 
Plafond : 
>= 8 km
>= 3000ft
5 à 8 km
1000 à 3000 ft
1500m à 5 km
500 à 1000 ft
800 à 1500m
200 à 500 ft
< 800m
< 200 ft
Symboles :   Orages  Brouillard  Fortes neiges  Fortes précipitations  Vent > 20 kt
SIGMETs :   Divers  Orages  Givrage  Turbulence  Onde Orograph.  Cendres Volcan.







- Altitude de l'aérodrome : 49 ft
- Code IATA : GLZ


EHGR - Gilze-Rijen Airbase

DERNIER METAR :
  • 190055Z AUTO 22003KT 060V180 9999 FEW030 00/M02 Q1025 BLU

METARs EXPIRÉS :
  • 190025Z AUTO 25001KT 9999 SCT031 OVC035 M01/M02 Q1025 BLU
  • 182355Z AUTO 22001KT 9999 FEW035 M01/M02 Q1024 BLU
  • 182325Z AUTO 19002KT 9999 NCD M01/M02 Q1024 BLU
  • 182255Z AUTO 24002KT 9999 BKN037 M01/M02 Q1024 BLU
  • 182225Z AUTO 21003KT 9999 OVC039 M00/M02 Q1024 BLU

TAF TAF EHGR
Valide du 18 à 18h jusqu'au 19 à 06h UTC


181738Z 1818/1906 30008KT 9999 FEW020
BECMG 1818/1821 21003KT
PROB30
TEMPO 1902/1906 4000 BR MIFG
Pas de NOTAMs connus pour ce terrain.



MET'MAP, la Météo Aéronautique d'un coup d'oeil ! - Copyright ORBIFLY Décembre 2007 - Disclaimer

ORBIFLY MET'MAP TEAM :

Programmation & Développement : Alexandra Zaïnal
Conception & Développement : Baudouin d'Aumeries
Co-Programmation & Développement : Marc-Olivier Méhu
Soutien technique & logistique : Manuel Goepfert

Contact : metmap@orbifly.com




SOURCES & CREDITS :

   NOAA